KSAT/SAT METAR and TAF weather

Enter ICAO airport designator
Station Type Date Time Source
KSAT METAR 2021/01/27 13:51 UTC NOAA

KSAT 271351Z 32006KT 10SM SCT070 BKN250 09/02 A3022 RMK AO2 SLP222 T00940017


Station Type Date Time Source
KSAT Decoded METAR 2021/01/27 13:51 UTC NOAA

SAN ANTONIO INTERNATIONAL AIRPORT , TX, United States (KSAT) 29-32N 098-28W 243M
Jan 27, 2021 - 08:51 AM EST / 2021.01.27 1351 UTC
Wind: from the NW (320 degrees) at 7 MPH (6 KT):0
Visibility: 10 mile(s):0
Sky conditions: mostly cloudy
Temperature: 48.9 F (9.4 C)
Dew Point: 35.1 F (1.7 C)
Relative Humidity: 58%
Pressure (altimeter): 30.22 in. Hg (1023 hPa)
ob: KSAT 271351Z 32006KT 10SM SCT070 BKN250 09/02 A3022 RMK AO2 SLP222 T00940017
cycle: 14

Station Type Date Time Source
KSAT TAF 2021/01/27 12:22 UTC NOAA

TAF KSAT 271120Z 2712/2818 36010KT P6SM BKN070 BKN250
FM271500 35012G22KT P6SM BKN250
FM280000 02006KT P6SM BKN200

Example: see airport list